createdAt,value
2022-12-19T00:00:14.717Z,2.40
2022-12-19T00:05:17.116Z,2.50
2022-12-19T00:10:18.852Z,2.50
2022-12-19T00:15:20.846Z,2.60
2022-12-19T00:20:22.605Z,2.70
2022-12-19T00:25:24.327Z,2.90
2022-12-19T00:30:26.731Z,2.90
2022-12-19T00:35:28.577Z,3.10
2022-12-19T00:40:30.444Z,3.30
2022-12-19T00:45:32.434Z,3.40
2022-12-19T00:50:34.308Z,3.50
2022-12-19T00:55:38.836Z,3.70
2022-12-19T01:00:40.703Z,3.70
2022-12-19T01:05:44.184Z,3.80
2022-12-19T01:10:51.916Z,3.80
2022-12-19T01:15:53.680Z,4.00
2022-12-19T01:20:55.436Z,4.10
2022-12-19T01:25:57.731Z,4.00
2022-12-19T01:30:59.466Z,4.10
2022-12-19T01:36:07.863Z,4.20
2022-12-19T01:41:11.101Z,4.20
2022-12-19T01:46:15.378Z,4.30
2022-12-19T01:51:22.222Z,4.40
2022-12-19T01:56:29.257Z,4.50
2022-12-19T02:01:31.560Z,4.50
2022-12-19T02:06:34.976Z,4.70
2022-12-19T02:11:36.836Z,5.00
2022-12-19T02:17:04.261Z,5.20
2022-12-19T02:22:17.440Z,5.40
2022-12-19T02:27:42.560Z,5.60
2022-12-19T02:32:48.613Z,5.50
2022-12-19T02:38:02.441Z,5.60
2022-12-19T02:43:10.059Z,5.60
2022-12-19T02:48:16.240Z,5.70
2022-12-19T02:53:23.516Z,5.70
2022-12-19T02:58:43.031Z,5.70
2022-12-19T03:04:27.740Z,5.70
2022-12-19T03:09:46.542Z,5.80
2022-12-19T03:14:49.373Z,5.80
2022-12-19T03:19:51.199Z,5.80
2022-12-19T03:24:53.232Z,5.80
2022-12-19T03:30:03.163Z,5.80
2022-12-19T03:35:29.078Z,5.80
2022-12-19T03:40:33.167Z,5.80
2022-12-19T03:45:57.678Z,5.80
2022-12-19T03:51:26.706Z,5.90
2022-12-19T03:56:38.447Z,6.00
2022-12-19T04:01:41.354Z,6.00
2022-12-19T04:06:45.182Z,6.00
2022-12-19T04:11:54.208Z,6.10
2022-12-19T04:17:16.709Z,6.10
2022-12-19T04:22:25.523Z,6.20
2022-12-19T04:27:28.830Z,6.20
2022-12-19T04:32:34.734Z,6.20
2022-12-19T04:37:36.897Z,6.30
2022-12-19T04:42:38.657Z,6.30
2022-12-19T04:47:40.474Z,6.50
2022-12-19T04:52:42.234Z,6.50
2022-12-19T04:57:43.975Z,6.60
2022-12-19T05:02:45.835Z,6.70
2022-12-19T05:07:47.715Z,6.80
2022-12-19T05:12:49.561Z,6.80
2022-12-19T05:17:51.307Z,6.80
2022-12-19T05:22:53.058Z,6.80
2022-12-19T05:27:54.798Z,6.90
2022-12-19T05:32:56.542Z,6.90
2022-12-19T05:37:58.449Z,7.00
2022-12-19T05:43:00.275Z,7.10
2022-12-19T05:48:02.027Z,7.20
2022-12-19T05:53:03.921Z,7.20
2022-12-19T05:58:05.896Z,7.10
2022-12-19T06:03:07.758Z,7.10
2022-12-19T06:08:09.619Z,7.20
2022-12-19T06:13:11.788Z,7.20
2022-12-19T06:18:13.524Z,7.30
2022-12-19T06:23:15.293Z,7.40
2022-12-19T06:28:17.286Z,7.40
2022-12-19T06:33:19.091Z,7.40
2022-12-19T06:38:20.834Z,7.40
2022-12-19T06:43:25.677Z,7.30
2022-12-19T06:48:28.371Z,7.50
2022-12-19T06:53:30.480Z,7.40
2022-12-19T06:58:33.627Z,7.40
2022-12-19T07:03:41.181Z,7.50
2022-12-19T07:08:43.406Z,7.40
2022-12-19T07:13:45.125Z,7.40
2022-12-19T07:18:46.954Z,7.40
2022-12-19T07:23:48.911Z,7.50
2022-12-19T07:28:50.800Z,7.50
2022-12-19T07:33:52.571Z,7.50
2022-12-19T07:38:54.431Z,7.50
2022-12-19T07:43:56.157Z,7.60
2022-12-19T07:48:57.982Z,7.60
2022-12-19T07:53:59.948Z,7.50
2022-12-19T07:59:02.037Z,7.70
2022-12-19T08:04:04.320Z,7.70
2022-12-19T08:09:06.172Z,7.70
2022-12-19T08:14:08.042Z,7.70
2022-12-19T08:19:10.197Z,7.80
2022-12-19T08:24:11.932Z,7.90
2022-12-19T08:29:13.672Z,7.80
2022-12-19T08:34:15.555Z,7.90
2022-12-19T08:39:17.511Z,8.00
2022-12-19T08:44:19.353Z,8.00
2022-12-19T08:49:21.184Z,8.10
2022-12-19T08:54:23.302Z,8.00
2022-12-19T08:59:31.756Z,8.10
2022-12-19T09:06:02.141Z,8.20
2022-12-19T09:09:55.775Z,8.40
2022-12-19T09:15:00.321Z,8.40
2022-12-19T09:20:02.134Z,8.40
2022-12-19T09:25:04.177Z,8.30
2022-12-19T09:30:08.225Z,8.30
2022-12-19T09:35:09.992Z,8.50
2022-12-19T09:40:17.206Z,8.50
2022-12-19T09:45:45.144Z,8.50
2022-12-19T09:51:10.544Z,8.60
2022-12-19T09:56:15.886Z,8.50
2022-12-19T10:01:26.055Z,8.60
2022-12-19T10:07:00.873Z,8.60
2022-12-19T10:12:46.512Z,8.60
2022-12-19T10:18:02.518Z,8.50
2022-12-19T10:23:26.075Z,8.60
2022-12-19T10:28:48.521Z,8.60
2022-12-19T10:33:59.179Z,8.70
2022-12-19T10:39:11.824Z,8.60
2022-12-19T10:44:14.432Z,8.70
2022-12-19T10:49:22.066Z,8.80
2022-12-19T10:54:33.027Z,9.00
2022-12-19T10:59:35.282Z,9.10
2022-12-19T11:04:37.353Z,9.10
2022-12-19T11:09:41.085Z,9.20
2022-12-19T11:20:01.700Z,9.20
2022-12-19T11:30:05.416Z,9.30
2022-12-19T11:30:35.459Z,9.50
2022-12-19T11:37:00.396Z,9.70
2022-12-19T11:42:16.749Z,9.80
2022-12-19T11:47:30.644Z,9.80
2022-12-19T11:58:05.228Z,9.80
2022-12-19T12:03:18.836Z,9.80
2022-12-19T12:10:57.770Z,10.10
2022-12-19T12:20:41.730Z,10.10
2022-12-19T12:31:09.472Z,10.20
2022-12-19T12:31:49.679Z,10.20
2022-12-19T12:35:54.319Z,10.40
2022-12-19T12:38:21.853Z,10.30
2022-12-19T12:43:36.150Z,10.30
2022-12-19T12:48:43.049Z,10.50
2022-12-19T12:53:47.922Z,10.60
2022-12-19T12:58:54.060Z,10.60
2022-12-19T13:04:03.590Z,10.60
2022-12-19T13:09:05.358Z,10.70
2022-12-19T13:14:35.972Z,10.70
2022-12-19T13:19:40.029Z,10.70
2022-12-19T13:24:41.730Z,10.70
2022-12-19T13:29:54.369Z,10.70
2022-12-19T13:35:30.039Z,10.90
2022-12-19T13:40:43.011Z,10.80
2022-12-19T13:45:57.694Z,10.60
2022-12-19T13:51:04.689Z,10.70
2022-12-19T13:56:09.364Z,10.80
2022-12-19T14:01:33.450Z,10.80
2022-12-19T14:06:40.738Z,10.70
2022-12-19T14:13:39.155Z,10.70
2022-12-19T14:17:08.417Z,10.70
2022-12-19T14:22:25.981Z,10.70
2022-12-19T14:28:27.677Z,10.70
2022-12-19T14:33:58.534Z,10.60
2022-12-19T14:39:19.586Z,10.60
2022-12-19T14:52:25.933Z,10.60
2022-12-19T14:54:24.918Z,10.60
2022-12-19T14:56:08.664Z,10.50
2022-12-19T15:01:09.924Z,10.60
2022-12-19T15:07:05.014Z,10.40
2022-12-19T15:13:30.058Z,10.40
2022-12-19T15:17:27.074Z,10.30
2022-12-19T15:22:28.816Z,10.40
2022-12-19T15:27:31.621Z,10.30
2022-12-19T15:32:33.594Z,10.30
2022-12-19T15:37:35.340Z,10.40
2022-12-19T15:42:37.314Z,10.40
2022-12-19T15:47:40.452Z,10.30
2022-12-19T15:52:42.460Z,10.40
2022-12-19T15:57:52.871Z,10.30
2022-12-19T16:08:22.778Z,10.40
2022-12-19T16:13:26.448Z,10.30
2022-12-19T16:18:28.210Z,10.30
2022-12-19T16:23:29.924Z,10.30
2022-12-19T16:28:35.052Z,10.30
2022-12-19T16:33:36.770Z,10.20
2022-12-19T16:38:38.496Z,10.40
2022-12-19T16:43:43.827Z,10.50
2022-12-19T16:48:49.451Z,10.30
2022-12-19T16:53:54.356Z,10.30
2022-12-19T16:58:59.085Z,10.10
2022-12-19T17:04:00.907Z,10.20
2022-12-19T17:09:03.024Z,10.20
2022-12-19T17:14:08.631Z,10.30
2022-12-19T17:19:31.939Z,10.30
2022-12-19T17:24:33.712Z,10.30
2022-12-19T17:29:35.516Z,10.30
2022-12-19T17:34:37.319Z,10.30
2022-12-19T17:39:42.090Z,10.30
2022-12-19T17:44:43.827Z,10.30
2022-12-19T17:49:46.453Z,10.20
2022-12-19T17:54:48.452Z,10.20
2022-12-19T17:59:50.271Z,10.10
2022-12-19T18:04:52.916Z,10.10
2022-12-19T18:09:54.771Z,10.00
2022-12-19T18:14:56.629Z,10.10
2022-12-19T18:19:58.525Z,10.10
2022-12-19T18:25:00.353Z,10.20
2022-12-19T18:30:02.124Z,10.30
2022-12-19T18:35:04.229Z,10.30
2022-12-19T18:40:29.232Z,10.30
2022-12-19T18:45:38.650Z,10.30
2022-12-19T18:50:40.581Z,10.40
2022-12-19T18:55:42.626Z,10.30
2022-12-19T19:00:45.093Z,10.30
2022-12-19T19:05:47.231Z,10.30
2022-12-19T19:10:50.631Z,10.40
2022-12-19T19:16:01.727Z,10.40
2022-12-19T19:21:06.443Z,10.40
2022-12-19T19:26:08.220Z,10.30
2022-12-19T19:31:14.199Z,10.30
2022-12-19T19:36:20.430Z,10.20
2022-12-19T19:41:24.255Z,10.10
2022-12-19T19:46:29.615Z,10.20
2022-12-19T19:51:31.468Z,10.40
2022-12-19T19:56:33.454Z,10.20
2022-12-19T20:01:35.430Z,10.10
2022-12-19T20:06:37.389Z,10.20
2022-12-19T20:11:39.439Z,10.20
2022-12-19T20:16:43.460Z,10.40
2022-12-19T20:21:45.942Z,10.40
2022-12-19T20:26:47.828Z,10.40
2022-12-19T20:31:50.072Z,10.40
2022-12-19T20:36:52.209Z,10.70
2022-12-19T20:41:54.444Z,10.50
2022-12-19T20:46:56.310Z,10.80
2022-12-19T20:51:58.273Z,10.70
2022-12-19T20:57:00.856Z,10.80
2022-12-19T21:02:02.893Z,10.80
2022-12-19T21:07:04.836Z,10.90
2022-12-19T21:12:06.762Z,11.00
2022-12-19T21:17:08.565Z,11.10
2022-12-19T21:22:11.057Z,11.20
2022-12-19T21:27:12.899Z,11.20
2022-12-19T21:32:18.819Z,11.20
2022-12-19T21:37:21.174Z,11.20
2022-12-19T21:42:23.009Z,11.20
2022-12-19T21:47:24.761Z,11.10
2022-12-19T21:52:26.543Z,11.30
2022-12-19T21:57:28.591Z,11.30
2022-12-19T22:02:30.460Z,11.20
2022-12-19T22:07:32.888Z,11.20
2022-12-19T22:12:34.666Z,11.30
2022-12-19T22:17:36.483Z,11.40
2022-12-19T22:22:38.287Z,11.40
2022-12-19T22:27:40.291Z,11.60
2022-12-19T22:32:42.148Z,11.60
2022-12-19T22:37:44.053Z,11.60
2022-12-19T22:42:46.105Z,11.90
2022-12-19T22:47:47.852Z,12.00
2022-12-19T22:52:50.223Z,11.90
2022-12-19T22:57:52.218Z,11.80
2022-12-19T23:02:54.198Z,12.00
2022-12-19T23:07:56.072Z,11.90
2022-12-19T23:12:57.915Z,12.10
2022-12-19T23:17:59.662Z,12.00
2022-12-19T23:23:01.461Z,11.90
2022-12-19T23:28:03.291Z,11.90
2022-12-19T23:33:05.097Z,12.00
2022-12-19T23:38:06.818Z,11.90
2022-12-19T23:43:08.569Z,12.00
2022-12-19T23:48:10.329Z,12.10
2022-12-19T23:53:12.125Z,12.10
2022-12-19T23:58:17.895Z,12.20
